createdAt,value
2022-10-01T00:02:08.518Z,100167.91
2022-10-01T00:05:09.987Z,100171.44
2022-10-01T00:08:14.431Z,100157.34
2022-10-01T00:11:22.937Z,100138.09
2022-10-01T00:14:24.373Z,100126.75
2022-10-01T00:17:25.817Z,100110.00
2022-10-01T00:20:27.232Z,100108.28
2022-10-01T00:23:28.641Z,100102.97
2022-10-01T00:26:33.760Z,100093.28
2022-10-01T00:29:35.307Z,100080.09
2022-10-01T00:32:36.975Z,100083.53
2022-10-01T00:35:38.399Z,100079.09
2022-10-01T00:38:39.966Z,100070.28
2022-10-01T00:41:41.855Z,100075.56
2022-10-01T00:44:43.757Z,100074.56
2022-10-01T00:47:49.693Z,100072.06
2022-10-01T00:50:52.025Z,100066.72
2022-10-01T00:54:01.250Z,100045.72
2022-10-01T00:57:05.231Z,100039.69
2022-10-01T01:00:10.069Z,100039.50
2022-10-01T01:03:12.544Z,100021.06
2022-10-01T01:06:14.001Z,100013.16
2022-10-01T01:09:15.469Z,100030.81
2022-10-01T01:12:35.652Z,100009.59
2022-10-01T01:15:45.358Z,100013.88
2022-10-01T01:18:56.314Z,100002.31
2022-10-01T01:22:03.091Z,100012.78
2022-10-01T01:25:16.392Z,99995.97
2022-10-01T01:28:32.542Z,99991.56
2022-10-01T01:31:41.742Z,99983.56
2022-10-01T01:34:46.616Z,100002.78
2022-10-01T01:37:55.108Z,99998.28
2022-10-01T01:41:00.756Z,100001.72
2022-10-01T01:44:05.140Z,100000.72
2022-10-01T01:47:08.997Z,99989.09
2022-10-01T01:50:12.827Z,99987.28
2022-10-01T01:53:14.996Z,99987.41
2022-10-01T01:56:17.263Z,99987.28
2022-10-01T01:59:18.853Z,100003.81
2022-10-01T02:02:26.304Z,99997.59
2022-10-01T02:05:37.549Z,99987.03
2022-10-01T02:09:06.869Z,99997.44
2022-10-01T02:12:17.721Z,99993.63
2022-10-01T02:15:27.875Z,100009.59
2022-10-01T02:18:29.229Z,100000.88
2022-10-01T02:21:41.453Z,99987.56
2022-10-01T02:24:54.482Z,99998.97
2022-10-01T02:27:59.594Z,99996.41
2022-10-01T02:31:02.364Z,99988.38
2022-10-01T02:34:12.337Z,99987.47
2022-10-01T02:37:15.629Z,99986.75
2022-10-01T02:40:22.430Z,99992.84
2022-10-01T02:43:29.514Z,99986.38
2022-10-01T02:46:43.295Z,99982.63
2022-10-01T02:49:44.771Z,99978.94
2022-10-01T02:52:52.877Z,99968.97
2022-10-01T02:55:57.193Z,99968.75
2022-10-01T02:58:58.576Z,99968.63
2022-10-01T03:02:00.195Z,99960.63
2022-10-01T03:05:01.817Z,99957.66
2022-10-01T03:08:03.331Z,99957.63
2022-10-01T03:11:04.745Z,99954.06
2022-10-01T03:14:06.202Z,99949.50
2022-10-01T03:17:07.691Z,99961.81
2022-10-01T03:20:09.819Z,99945.00
2022-10-01T03:23:11.240Z,99948.41
2022-10-01T03:26:12.678Z,99948.28
2022-10-01T03:29:14.091Z,99950.06
2022-10-01T03:32:16.022Z,99956.06
2022-10-01T03:35:17.423Z,99954.13
2022-10-01T03:38:18.831Z,99950.72
2022-10-01T03:41:20.274Z,99961.28
2022-10-01T03:44:21.709Z,99951.63
2022-10-01T03:47:23.137Z,99951.38
2022-10-01T03:50:24.583Z,99953.88
2022-10-01T03:53:27.372Z,99962.44
2022-10-01T03:56:28.897Z,99971.16
2022-10-01T03:59:30.313Z,99975.66
2022-10-01T04:02:31.885Z,99991.06
2022-10-01T04:05:33.417Z,99981.94
2022-10-01T04:08:34.813Z,100001.06
2022-10-01T04:11:37.306Z,100007.03
2022-10-01T04:14:38.930Z,99997.38
2022-10-01T04:17:43.879Z,100005.53
2022-10-01T04:20:48.301Z,100006.38
2022-10-01T04:23:49.725Z,100005.88
2022-10-01T04:26:51.588Z,100007.72
2022-10-01T04:29:53.183Z,100016.31
2022-10-01T04:32:54.736Z,100016.31
2022-10-01T04:35:56.137Z,100027.31
2022-10-01T04:39:01.737Z,100017.34
2022-10-01T04:42:04.150Z,100026.19
2022-10-01T04:45:06.489Z,100042.47
2022-10-01T04:48:07.902Z,100043.19
2022-10-01T04:51:09.398Z,100042.81
2022-10-01T04:54:10.798Z,100057.03
2022-10-01T04:57:12.196Z,100054.75
2022-10-01T05:00:16.780Z,100054.47
2022-10-01T05:03:18.236Z,100062.06
2022-10-01T05:06:19.633Z,100074.59
2022-10-01T05:09:21.049Z,100069.03
2022-10-01T05:12:24.685Z,100074.44
2022-10-01T05:15:26.210Z,100080.25
2022-10-01T05:18:27.626Z,100086.34
2022-10-01T05:21:29.093Z,100085.16
2022-10-01T05:24:30.503Z,100087.19
2022-10-01T05:27:31.894Z,100102.69
2022-10-01T05:30:34.260Z,100105.31
2022-10-01T05:33:35.657Z,100108.25
2022-10-01T05:36:37.071Z,100116.56
2022-10-01T05:39:38.603Z,100128.84
2022-10-01T05:42:45.503Z,100128.47
2022-10-01T05:45:46.973Z,100131.94
2022-10-01T05:48:49.063Z,100132.66
2022-10-01T05:51:50.497Z,100138.00
2022-10-01T05:54:51.872Z,100147.88
2022-10-01T05:58:01.957Z,100156.78
2022-10-01T06:01:03.488Z,100145.09
2022-10-01T06:04:04.925Z,100143.97
2022-10-01T06:07:06.369Z,100143.34
2022-10-01T06:10:08.341Z,100147.75
2022-10-01T06:13:09.775Z,100150.78
2022-10-01T06:16:11.875Z,100151.06
2022-10-01T06:19:13.375Z,100149.06
2022-10-01T06:22:14.808Z,100158.47
2022-10-01T06:25:16.344Z,100155.16
2022-10-01T06:28:17.824Z,100161.66
2022-10-01T06:31:19.833Z,100168.75
2022-10-01T06:34:21.320Z,100164.84
2022-10-01T06:37:22.776Z,100170.72
2022-10-01T06:40:24.628Z,100178.13
2022-10-01T06:43:28.299Z,100193.91
2022-10-01T06:46:29.694Z,100197.91
2022-10-01T06:49:31.086Z,100191.78
2022-10-01T06:52:32.480Z,100191.88
2022-10-01T06:55:35.849Z,100183.84
2022-10-01T06:58:37.319Z,100185.34
2022-10-01T07:01:39.160Z,100196.22
2022-10-01T07:04:40.794Z,100201.28
2022-10-01T07:07:42.921Z,100198.63
2022-10-01T07:10:44.481Z,100205.22
2022-10-01T07:13:45.980Z,100209.59
2022-10-01T07:16:47.455Z,100204.97
2022-10-01T07:19:48.982Z,100220.44
2022-10-01T07:22:56.992Z,100222.56
2022-10-01T07:25:58.443Z,100230.81
2022-10-01T07:28:59.856Z,100228.03
2022-10-01T07:32:01.878Z,100224.09
2022-10-01T07:35:03.929Z,100227.53
2022-10-01T07:38:05.342Z,100239.63
2022-10-01T07:41:06.783Z,100246.50
2022-10-01T07:44:08.421Z,100253.66
2022-10-01T07:47:11.398Z,100253.06
2022-10-01T07:50:12.845Z,100240.28
2022-10-01T07:53:14.291Z,100250.88
2022-10-01T07:56:15.703Z,100256.09
2022-10-01T07:59:17.158Z,100272.56
2022-10-01T08:02:18.583Z,100265.75
2022-10-01T08:05:23.041Z,100279.78
2022-10-01T08:08:24.541Z,100279.47
2022-10-01T08:11:25.946Z,100282.66
2022-10-01T08:14:27.365Z,100292.06
2022-10-01T08:17:29.741Z,100295.94
2022-10-01T08:20:31.804Z,100301.06
2022-10-01T08:23:33.729Z,100301.69
2022-10-01T08:26:35.563Z,100298.91
2022-10-01T08:29:36.991Z,100302.88
2022-10-01T08:32:38.405Z,100315.34
2022-10-01T08:35:40.404Z,100318.66
2022-10-01T08:38:45.486Z,100326.63
2022-10-01T08:41:49.847Z,100325.75
2022-10-01T08:44:52.688Z,100327.47
2022-10-01T08:48:29.627Z,100327.81
2022-10-01T08:51:35.058Z,100337.09
2022-10-01T08:54:45.595Z,100339.47
2022-10-01T08:57:53.266Z,100346.63
2022-10-01T09:00:54.819Z,100348.25
2022-10-01T09:03:56.582Z,100351.81
2022-10-01T09:07:13.255Z,100355.28
2022-10-01T09:10:43.662Z,100374.16
2022-10-01T09:14:12.189Z,100363.34
2022-10-01T09:17:25.796Z,100368.13
2022-10-01T09:20:35.078Z,100372.94
2022-10-01T09:23:46.274Z,100375.66
2022-10-01T09:26:48.069Z,100380.41
2022-10-01T09:33:10.955Z,100406.41
2022-10-01T09:36:26.252Z,100395.69
2022-10-01T09:39:34.625Z,100402.53
2022-10-01T09:42:36.176Z,100409.50
2022-10-01T09:45:38.612Z,100408.19
2022-10-01T09:49:02.012Z,100430.44
2022-10-01T09:52:10.669Z,100433.84
2022-10-01T09:55:18.173Z,100443.50
2022-10-01T09:58:22.909Z,100440.81
2022-10-01T10:01:37.789Z,100443.13
2022-10-01T10:04:39.588Z,100454.47
2022-10-01T10:07:46.082Z,100449.03
2022-10-01T10:10:51.484Z,100462.81
2022-10-01T10:13:58.160Z,100460.63
2022-10-01T10:17:12.222Z,100462.88
2022-10-01T10:20:25.309Z,100475.91
2022-10-01T10:23:27.441Z,100488.72
2022-10-01T10:26:37.604Z,100490.84
2022-10-01T10:29:39.448Z,100497.34
2022-10-01T10:32:42.652Z,100505.41
2022-10-01T10:35:44.110Z,100509.50
2022-10-01T10:38:52.015Z,100508.84
2022-10-01T10:41:53.806Z,100509.38
2022-10-01T10:45:00.358Z,100522.53
2022-10-01T10:48:04.350Z,100521.84
2022-10-01T10:51:06.236Z,100524.59
2022-10-01T10:54:18.146Z,100532.78
2022-10-01T10:57:26.960Z,100532.19
2022-10-01T11:00:28.436Z,100532.16
2022-10-01T11:03:32.151Z,100542.63
2022-10-01T11:06:33.891Z,100549.53
2022-10-01T11:10:19.728Z,100562.28
2022-10-01T11:13:30.296Z,100565.78
2022-10-01T11:16:34.964Z,100568.50
2022-10-01T11:19:50.201Z,100573.91
2022-10-01T11:23:22.574Z,100598.66
2022-10-01T11:26:41.056Z,100603.34
2022-10-01T11:30:00.480Z,100602.44
2022-10-01T11:33:15.781Z,100611.44
2022-10-01T11:36:33.546Z,100613.63
2022-10-01T11:39:38.378Z,100600.31
2022-10-01T11:42:42.088Z,100610.88
2022-10-01T11:45:48.357Z,100615.84
2022-10-01T11:49:08.594Z,100627.00
2022-10-01T11:52:27.202Z,100632.03
2022-10-01T11:55:44.016Z,100644.56
2022-10-01T11:59:09.644Z,100638.00
2022-10-01T12:02:32.801Z,100652.34
2022-10-01T12:05:34.845Z,100654.47
2022-10-01T12:08:37.404Z,100666.16
2022-10-01T12:11:48.330Z,100658.03
2022-10-01T12:15:06.834Z,100655.59
2022-10-01T12:18:18.553Z,100664.59
2022-10-01T12:21:34.594Z,100671.91
2022-10-01T12:24:40.626Z,100667.97
2022-10-01T12:27:57.287Z,100672.81
2022-10-01T12:31:20.560Z,100673.97
2022-10-01T12:34:43.821Z,100674.69
2022-10-01T12:37:57.479Z,100684.41
2022-10-01T12:41:38.874Z,100682.06
2022-10-01T12:45:05.300Z,100683.81
2022-10-01T12:48:36.134Z,100685.34
2022-10-01T12:51:42.536Z,100695.16
2022-10-01T12:54:57.897Z,100695.16
2022-10-01T12:58:37.792Z,100697.81
2022-10-01T13:01:54.881Z,100701.50
2022-10-01T13:05:06.130Z,100711.81
2022-10-01T13:08:33.616Z,100716.88
2022-10-01T13:11:55.172Z,100716.53
2022-10-01T13:14:57.879Z,100732.91
2022-10-01T13:18:15.048Z,100733.88
2022-10-01T13:21:33.681Z,100742.53
2022-10-01T13:24:58.130Z,100741.22
2022-10-01T13:28:03.108Z,100750.22
2022-10-01T13:31:16.625Z,100750.94
2022-10-01T13:34:33.990Z,100755.50
2022-10-01T13:37:39.837Z,100763.06
2022-10-01T13:40:41.776Z,100763.56
2022-10-01T13:43:52.162Z,100762.56
2022-10-01T13:47:00.956Z,100781.78
2022-10-01T13:50:07.365Z,100779.63
2022-10-01T13:53:20.203Z,100791.22
2022-10-01T13:56:34.995Z,100788.03
2022-10-01T13:59:37.646Z,100795.59
2022-10-01T14:02:42.069Z,100809.44
2022-10-01T14:05:44.213Z,100809.44
2022-10-01T14:09:04.376Z,100809.53
2022-10-01T14:12:16.705Z,100811.78
2022-10-01T14:15:22.043Z,100810.91
2022-10-01T14:18:28.309Z,100824.91
2022-10-01T14:21:55.377Z,100822.91
2022-10-01T14:25:02.687Z,100830.56
2022-10-01T14:28:12.237Z,100842.00
2022-10-01T14:31:36.314Z,100843.06
2022-10-01T14:34:37.659Z,100842.06
2022-10-01T14:37:40.164Z,100852.81
2022-10-01T14:40:43.569Z,100841.69
2022-10-01T14:43:45.446Z,100847.44
2022-10-01T14:46:46.879Z,100845.31
2022-10-01T14:49:49.452Z,100841.06
2022-10-01T14:52:51.118Z,100855.47
2022-10-01T14:55:55.958Z,100852.88
2022-10-01T14:59:02.252Z,100853.28
2022-10-01T15:02:17.699Z,100850.84
2022-10-01T15:05:20.385Z,100859.66
2022-10-01T15:08:24.703Z,100872.66
2022-10-01T15:11:28.753Z,100868.34
2022-10-01T15:14:30.155Z,100878.03
2022-10-01T15:17:31.642Z,100881.97
2022-10-01T15:20:34.138Z,100875.22
2022-10-01T15:23:39.470Z,100879.19
2022-10-01T15:26:40.937Z,100883.84
2022-10-01T15:29:43.799Z,100883.84
2022-10-01T15:32:47.315Z,100879.97
2022-10-01T15:35:49.273Z,100889.88
2022-10-01T15:38:50.945Z,100903.66
2022-10-01T15:41:54.093Z,100904.91
2022-10-01T15:45:07.766Z,100904.03
2022-10-01T15:48:31.005Z,100913.88
2022-10-01T15:51:32.449Z,100925.94
2022-10-01T15:54:34.760Z,100923.28
2022-10-01T15:57:38.147Z,100929.81
2022-10-01T16:00:53.114Z,100929.56
2022-10-01T16:03:55.854Z,100929.16
2022-10-01T16:06:57.310Z,100924.78
2022-10-01T16:10:12.113Z,100935.53
2022-10-01T16:13:33.754Z,100930.53
2022-10-01T16:16:35.388Z,100932.41
2022-10-01T16:19:37.072Z,100932.41
2022-10-01T16:22:38.492Z,100942.78
2022-10-01T16:25:44.479Z,100943.72
2022-10-01T16:28:45.924Z,100948.50
2022-10-01T16:31:47.563Z,100952.09
2022-10-01T16:34:49.257Z,100961.59
2022-10-01T16:37:52.929Z,100962.50
2022-10-01T16:40:54.420Z,100966.78
2022-10-01T16:43:57.105Z,100966.53
2022-10-01T16:46:58.476Z,100977.81
2022-10-01T16:49:59.896Z,100981.00
2022-10-01T16:53:01.291Z,100986.34
2022-10-01T16:56:02.740Z,100988.56
2022-10-01T16:59:04.147Z,100993.19
2022-10-01T17:02:11.314Z,100994.25
2022-10-01T17:05:19.365Z,100997.72
2022-10-01T17:08:20.803Z,101003.03
2022-10-01T17:11:24.905Z,100999.78
2022-10-01T17:14:26.234Z,100996.59
2022-10-01T17:17:27.618Z,101000.47
2022-10-01T17:20:29.608Z,101004.47
2022-10-01T17:23:31.025Z,101004.13
2022-10-01T17:26:32.643Z,101015.28
2022-10-01T17:29:34.293Z,101015.78
2022-10-01T17:32:35.814Z,101024.00
2022-10-01T17:35:41.532Z,101031.25
2022-10-01T17:38:42.926Z,101044.66
2022-10-01T17:41:44.337Z,101052.06
2022-10-01T17:44:45.800Z,101044.88
2022-10-01T17:47:48.761Z,101040.84
2022-10-01T17:51:08.197Z,101047.88
2022-10-01T17:54:09.609Z,101051.91
2022-10-01T17:57:11.165Z,101062.72
2022-10-01T18:00:12.719Z,101077.22
2022-10-01T18:03:14.211Z,101087.31
2022-10-01T18:06:15.655Z,101080.69
2022-10-01T18:09:17.194Z,101087.13
2022-10-01T18:12:18.638Z,101097.91
2022-10-01T18:15:20.093Z,101103.13
2022-10-01T18:21:42.932Z,101102.38
2022-10-01T18:24:44.517Z,101109.94
2022-10-01T18:27:47.441Z,101107.34
2022-10-01T18:30:54.101Z,101116.09
2022-10-01T18:33:59.377Z,101115.22
2022-10-01T18:37:06.740Z,101119.09
2022-10-01T18:40:15.930Z,101127.69
2022-10-01T18:43:25.371Z,101136.94
2022-10-01T18:46:40.913Z,101136.81
2022-10-01T18:49:48.790Z,101143.84
2022-10-01T18:53:06.978Z,101147.75
2022-10-01T18:56:35.078Z,101150.69
2022-10-01T18:59:58.135Z,101147.41
2022-10-01T19:03:18.276Z,101151.94
2022-10-01T19:06:31.577Z,101151.47
2022-10-01T19:09:58.149Z,101156.25
2022-10-01T19:13:15.637Z,101151.31
2022-10-01T19:16:26.117Z,101155.31
2022-10-01T19:19:33.721Z,101164.06
2022-10-01T19:22:58.939Z,101161.25
2022-10-01T19:26:09.557Z,101164.84
2022-10-01T19:29:27.616Z,101166.38
2022-10-01T19:32:47.545Z,101174.75
2022-10-01T19:35:52.368Z,101185.88
2022-10-01T19:38:57.840Z,101176.88
2022-10-01T19:42:29.418Z,101188.09
2022-10-01T19:45:42.258Z,101196.38
2022-10-01T19:48:50.436Z,101195.63
2022-10-01T19:51:57.670Z,101199.75
2022-10-01T19:54:59.892Z,101206.41
2022-10-01T19:58:17.197Z,101211.44
2022-10-01T20:01:20.871Z,101213.81
2022-10-01T20:04:40.584Z,101214.34
2022-10-01T20:08:20.339Z,101209.31
2022-10-01T20:11:31.453Z,101219.63
2022-10-01T20:14:54.846Z,101230.19
2022-10-01T20:18:10.735Z,101222.44
2022-10-01T20:21:37.232Z,101227.03
2022-10-01T20:25:03.463Z,101240.06
2022-10-01T20:28:10.999Z,101249.75
2022-10-01T20:31:22.165Z,101255.84
2022-10-01T20:34:29.585Z,101247.34
2022-10-01T20:37:46.851Z,101258.06
2022-10-01T20:40:52.895Z,101260.16
2022-10-01T20:44:00.262Z,101261.06
2022-10-01T20:47:12.251Z,101263.78
2022-10-01T20:50:19.785Z,101264.88
2022-10-01T20:53:52.821Z,101263.97
2022-10-01T20:57:15.707Z,101258.38
2022-10-01T21:00:21.314Z,101258.50
2022-10-01T21:03:41.704Z,101262.34
2022-10-01T21:06:47.468Z,101266.88
2022-10-01T21:09:52.845Z,101266.88
2022-10-01T21:13:05.288Z,101269.34
2022-10-01T21:16:44.821Z,101268.63
2022-10-01T21:19:55.828Z,101269.47
2022-10-01T21:23:12.948Z,101267.66
2022-10-01T21:26:19.136Z,101254.19
2022-10-01T21:29:35.782Z,101264.00
2022-10-01T21:32:53.052Z,101273.72
2022-10-01T21:36:01.575Z,101267.53
2022-10-01T21:39:10.790Z,101274.09
2022-10-01T21:42:17.319Z,101268.63
2022-10-01T21:45:45.336Z,101270.63
2022-10-01T21:49:03.900Z,101273.25
2022-10-01T21:52:31.439Z,101277.50
2022-10-01T21:56:17.897Z,101286.09
2022-10-01T21:59:49.396Z,101301.97
2022-10-01T22:03:02.639Z,101307.78
2022-10-01T22:06:19.898Z,101319.81
2022-10-01T22:09:36.963Z,101314.69
2022-10-01T22:12:42.075Z,101320.97
2022-10-01T22:15:45.104Z,101319.41
2022-10-01T22:18:51.302Z,101305.59
2022-10-01T22:22:16.697Z,101313.78
2022-10-01T22:25:18.178Z,101330.81
2022-10-01T22:28:26.848Z,101343.59
2022-10-01T22:31:34.805Z,101339.75
2022-10-01T22:34:43.789Z,101335.66
2022-10-01T22:37:54.993Z,101329.94
2022-10-01T22:40:59.386Z,101336.69
2022-10-01T22:44:06.250Z,101339.91
2022-10-01T22:47:35.408Z,101333.84
2022-10-01T22:51:15.976Z,101333.00
2022-10-01T22:54:39.022Z,101335.66
2022-10-01T22:57:59.143Z,101345.19
2022-10-01T23:01:24.145Z,101346.53
2022-10-01T23:04:48.952Z,101342.03
2022-10-01T23:07:56.073Z,101342.88
2022-10-01T23:11:03.374Z,101338.31
2022-10-01T23:14:35.376Z,101342.88
2022-10-01T23:17:51.724Z,101343.78
2022-10-01T23:21:09.249Z,101348.88
2022-10-01T23:24:30.872Z,101355.19
2022-10-01T23:28:09.987Z,101360.59
2022-10-01T23:31:29.526Z,101358.78
2022-10-01T23:34:58.196Z,101359.59
2022-10-01T23:38:08.652Z,101370.44
2022-10-01T23:41:27.856Z,101357.38
2022-10-01T23:44:49.221Z,101364.28
2022-10-01T23:48:04.042Z,101373.63
2022-10-01T23:51:16.501Z,101375.19
2022-10-01T23:54:32.907Z,101384.59
2022-10-01T23:57:38.881Z,101381.13
